x

Stonewall Bank - 20nm West Of Newport, Or (46050) Wave Buoy

2:50pm - Thu 30th Jul 2015 All times are PDT. -7 hours from GMT.

  • Sig Wave height 6.2ft
  • Swell Direction
  • Peak Period 9s
  • Average Period 6s
  • Wind
    11mph
  • Sea Temp 56°f
  • Air Temp 61°f
  • Sea Pressure 1017mb
  • Stonewall Bank - 20nm West Of Newport, Or
  • Stonewall Bank - 20nm West Of Newport, Or

More Historic Weather Station data

Upgrade to MSW Pro to gain access to the past 30 days of data for over 8000 Wavebouys and Weather Stations around the globe.

Join Pro

Comparision Forecast

View Surf forecast
   
Thu 07/30 2:50pm 6ft 9s 6s 11
mph
1017mb 56f 61f
1:50pm 6ft 8s 6s 11 13 mph 1016.9mb 57f 60f
12:50pm 6ft 9s 6s 7 9 mph 1017.1mb 58f 60f
11:50am 6.5ft 9s 6s 7
mph
1016.9mb 57f 59f
10:50am 7ft 8s 6s 7
mph
1016.7mb 56f 58f
9:50am 7ft 8s  -  7 9 mph 1016.7mb 56f 58f
8:50am 6.5ft 9s 6s 7 9 mph 1016.6mb 56f 58f
7:50am 7ft 8s 6s 7 9 mph 1016.5mb 56f 58f
6:50am 7ft 7s 6s 7 9 mph 1016.3mb 56f 58f
5:50am 7ft 8s 6s 11 13 mph 1015.7mb 56f 59f
4:50am 7.5ft 8s 6s 13 16 mph 1015.7mb 56f 60f
3:50am 8ft 10s 6s 16 18 mph 1015.4mb 56f 60f
2:50am 7.5ft 9s 6s 16 18 mph 1015.5mb 56f 60f
1:50am 8ft 10s 6s 16 18 mph 1015.7mb 56f 60f
12:50am 8ft 8s 6s 20 22 mph 1015.5mb 56f 61f
Wed 07/29 11:50pm 8.5ft 11s 6s 18 20 mph 1015.6mb 56f 61f
10:50pm 8.5ft 8s 6s 18 20 mph 1015.7mb 56f 61f
9:50pm 8.5ft 7s 7s 20 22 mph 1015.8mb 56f 61f
8:50pm 7.5ft 8s 6s 18 22 mph 1015.7mb 56f 61f
7:50pm 8ft 10s 6s 18 20 mph 1015.7mb 56f 62f
6:50pm 8ft 10s 7s 18 20 mph 1016mb 57f 62f
5:50pm 7.5ft 10s 6s 20 22 mph 1016.1mb 57f 61f
4:50pm 7.5ft 10s 6s 18 20 mph 1016.6mb 57f 61f
3:50pm 8ft 10s 6s 18 20 mph 1017mb 57f 61f
2:50pm 7.5ft 10s 6s 16 18 mph 1017.6mb 57f 60f
1:50pm 8ft 10s 6s 18 20 mph 1017.8mb 57f 60f
12:50pm 8ft 10s 7s 18 22 mph 1018mb 56f 60f
11:50am 7.5ft 9s 6s 16 20 mph 1018.4mb 57f 59f
10:50am 7.5ft 8s 6s 13 18 mph 1018.7mb 56f 59f
9:50am 6.5ft 7s 6s 18 20 mph 1018.7mb 56f 59f
8:50am 7ft 9s 6s 18 20 mph 1018.8mb 57f 59f
7:50am 7ft 8s 6s 16 18 mph 1019mb 57f 59f
6:50am 7ft 7s 6s 18 20 mph 1018.8mb 57f 59f
5:50am 7ft 8s 6s 20 22 mph 1018.5mb 57f 59f
4:50am 7ft 9s 6s 20 25 mph 1018.6mb 57f 60f
3:50am 7ft 8s 6s 20 22 mph 1018.6mb 58f 60f
2:50am 7.5ft 8s 6s 18 22 mph 1018.7mb 58f 60f
1:50am 7.5ft 7s 6s 20 25 mph 1019mb 58f 61f
12:50am 7ft 7s 6s 22 25 mph 1019.2mb 59f 61f
Tue 07/28 11:50pm 7.5ft 7s 6s 20 25 mph 1019.3mb 59f 61f
10:50pm 7ft 6s 6s 22 27 mph 1019.4mb 60f 62f
9:50pm 7ft 7s 6s 20 25 mph 1019.5mb 60f 62f
8:50pm 7ft 7s 6s 20 25 mph 1019.3mb 60f 62f
7:50pm 6ft 6s 6s 20 25 mph 1019.7mb 60f 63f
6:50pm 6ft 7s 6s 20 22 mph 1019.7mb 60f 63f
5:50pm 6ft 7s 5s 20 25 mph 1020mb 59f 63f
4:50pm 6ft 6s 5s 25 29 mph 1020.1mb 59f 63f
3:50pm 6ft 5s 5s 22 27 mph 1020.7mb 59f 62f
2:50pm 5ft 6s 5s 18 22 mph 1021.4mb 59f 62f
1:50pm 5ft 6s 5s 18 22 mph 1021.8mb 59f 62f
12:50pm 5ft 17s 5s 18 20 mph 1022.4mb 59f 61f
11:50am 5ft 6s 5s 20 22 mph 1022.6mb 59f 61f
10:50am 5ft 8s 5s 18 22 mph 1023.1mb 59f 61f
9:50am 5ft 8s 5s 20 25 mph 1023.2mb 59f 61f
8:50am 5ft 8s 5s 20 25 mph 1023.4mb 59f 61f
7:50am 5ft 8s 5s 18 20 mph 1023.5mb 59f 61f
6:50am 5ft 8s 5s 18 20 mph 1023.3mb 60f 61f
5:50am 5ft 8s 5s 18 20 mph 1023.3mb 60f 61f
4:50am 5ft 9s 5s 18 20 mph 1023.2mb 60f 61f
3:50am 4.5ft 8s 5s 18 20 mph 1023.3mb 60f 61f
2:50am 5ft 8s 5s 18 22 mph 1023.4mb 60f 62f
1:50am 5.5ft 9s 5s 18 22 mph 1023.4mb 61f 62f
12:50am 5ft 9s 5s 18 22 mph 1023.6mb 61f 62f
Mon 07/27 11:50pm 5ft 9s 5s 20 22 mph 1023.6mb 62f 63f
10:50pm 5ft 8s 5s 20 22 mph 1023.7mb 62f 63f
9:50pm 5ft 8s 5s 20 25 mph 1023.6mb 62f 63f
8:50pm 5ft 9s 5s 18 22 mph 1023.4mb 62f 63f
7:50pm 5ft 9s 5s 18 22 mph 1023.5mb 62f 64f
6:50pm 5ft 8s 5s 18 22 mph 1023.5mb 63f 65f
5:50pm 5ft 6s 6s 18 22 mph 1023.6mb 63f 64f
4:50pm 5ft 9s 6s 16 20 mph 1023.8mb 63f 64f
3:50pm 5ft 9s 6s 16
mph
1023.8mb 63f 64f
2:50pm 5ft 8s 6s 11 13 mph 1024.2mb 63f 64f
1:50pm 5ft 9s 6s 9 11 mph 1024.2mb 63f 63f
12:50pm 5ft 10s 6s 4
mph
1024.2mb 63f 62f
11:50am 5ft 10s 7s 2 4 mph 1024mb 62f 62f
10:50am 5ft 9s 6s 2 4 mph 1023.7mb 62f 61f
9:50am 5ft 9s 6s 2 4 mph 1023.4mb 62f 62f
8:50am 5ft 10s 6s 4 7 mph 1022.8mb 61f 62f
7:50am 5ft 10s 6s 9
mph
1022.5mb 61f 62f
6:50am 5ft 10s 6s 11 13 mph 1022.1mb 61f 62f
5:50am 5.5ft 10s 6s 13 16 mph 1021.7mb 61f 62f
4:50am 5.5ft 9s 6s 13 16 mph 1021.3mb 62f 63f
3:50am 5ft 10s 6s 13 16 mph 1021mb 62f 63f
2:50am 5.5ft 10s 6s 16 18 mph 1020.9mb 62f 63f
1:50am 5ft 11s 6s 16 18 mph 1020.6mb 62f 63f
12:50am 5ft 10s 6s 16 18 mph 1020.5mb 62f 63f